KRVS/RVS METAR and TAF weather

Enter ICAO airport designator
Station Type Date Time Source
KRVS METAR 2022/05/23 12:53 UTC NOAA

KRVS 231253Z 06005KT 10SM OVC031 14/09 A3020 RMK AO2 SLP233 T01390089


Station Type Date Time Source
KRVS Decoded METAR 2022/05/23 12:53 UTC NOAA

TULSA JONES JR. AIRPORT, OK, United States (KRVS) 36-03N 095-59W 200M
May 23, 2022 - 08:53 AM EDT / 2022.05.23 1253 UTC
Wind: from the ENE (060 degrees) at 6 MPH (5 KT):0
Visibility: 10 mile(s):0
Sky conditions: overcast
Temperature: 57.0 F (13.9 C)
Dew Point: 48.0 F (8.9 C)
Relative Humidity: 71%
Pressure (altimeter): 30.2 in. Hg (1022 hPa)
ob: KRVS 231253Z 06005KT 10SM OVC031 14/09 A3020 RMK AO2 SLP233 T01390089
cycle: 13

Station Type Date Time Source
KRVS TAF 2022/05/23 12:22 UTC NOAA

TAF KRVS 231120Z 2312/2412 04006KT P6SM OVC035
TEMPO 2312/2316 BKN025
FM231600 10007KT P6SM BKN025
FM232100 12009KT P6SM VCSH BKN025 PROB30 2400/2406 5SM -TSRA BKN025CB
FM240600 VRB03KT 5SM -SHRA BKN015 PROB30 2406/2412 3SM -TSRA BKN012CB

Example: see airport list